sensor_id;sensor_type;location;lat;lon;timestamp;pressure;altitude;pressure_sealevel;temperature;humidity
54248;BME280;40161;39.768;2.722;2023-11-18T00:00:52;102244.69;;;12.15;100.00
54248;BME280;40161;39.768;2.722;2023-11-18T00:03:18;102257.69;;;12.26;100.00
54248;BME280;40161;39.768;2.722;2023-11-18T00:05:43;102262.84;;;12.16;100.00
54248;BME280;40161;39.768;2.722;2023-11-18T00:08:09;102239.38;;;11.97;100.00
54248;BME280;40161;39.768;2.722;2023-11-18T00:10:35;102249.44;;;11.93;100.00
54248;BME280;40161;39.768;2.722;2023-11-18T00:13:00;102248.66;;;11.72;100.00
54248;BME280;40161;39.768;2.722;2023-11-18T00:15:27;102252.00;;;11.77;100.00
54248;BME280;40161;39.768;2.722;2023-11-18T00:17:52;102257.50;;;11.77;100.00
54248;BME280;40161;39.768;2.722;2023-11-18T00:20:18;102260.66;;;11.67;100.00
54248;BME280;40161;39.768;2.722;2023-11-18T00:22:45;102261.91;;;11.70;100.00
54248;BME280;40161;39.768;2.722;2023-11-18T00:25:11;102255.56;;;11.99;100.00
54248;BME280;40161;39.768;2.722;2023-11-18T00:27:39;102253.94;;;11.98;100.00
54248;BME280;40161;39.768;2.722;2023-11-18T00:30:05;102246.00;;;11.84;100.00
54248;BME280;40161;39.768;2.722;2023-11-18T00:32:33;102232.75;;;11.77;100.00
54248;BME280;40161;39.768;2.722;2023-11-18T00:35:00;102239.19;;;11.81;100.00
54248;BME280;40161;39.768;2.722;2023-11-18T00:37:26;102224.50;;;11.77;100.00
54248;BME280;40161;39.768;2.722;2023-11-18T00:39:52;102219.13;;;11.81;100.00
54248;BME280;40161;39.768;2.722;2023-11-18T00:42:18;102250.84;;;11.99;100.00
54248;BME280;40161;39.768;2.722;2023-11-18T00:44:43;102246.88;;;12.09;100.00
54248;BME280;40161;39.768;2.722;2023-11-18T00:47:09;102246.78;;;11.84;100.00
54248;BME280;40161;39.768;2.722;2023-11-18T00:49:34;102239.13;;;11.90;100.00
54248;BME280;40161;39.768;2.722;2023-11-18T00:52:00;102234.81;;;12.01;100.00
54248;BME280;40161;39.768;2.722;2023-11-18T00:54:25;102219.91;;;11.81;100.00
54248;BME280;40161;39.768;2.722;2023-11-18T00:56:52;102245.34;;;11.78;100.00
54248;BME280;40161;39.768;2.722;2023-11-18T00:59:17;102243.13;;;11.93;100.00
54248;BME280;40161;39.768;2.722;2023-11-18T01:01:43;102206.75;;;11.54;100.00
54248;BME280;40161;39.768;2.722;2023-11-18T01:04:08;102211.09;;;11.55;100.00
54248;BME280;40161;39.768;2.722;2023-11-18T01:06:34;102235.91;;;11.88;100.00
54248;BME280;40161;39.768;2.722;2023-11-18T01:08:59;102222.84;;;11.64;100.00
54248;BME280;40161;39.768;2.722;2023-11-18T01:11:26;102238.31;;;11.90;100.00
54248;BME280;40161;39.768;2.722;2023-11-18T01:13:51;102237.88;;;11.67;100.00
54248;BME280;40161;39.768;2.722;2023-11-18T01:16:20;102261.72;;;11.75;100.00
54248;BME280;40161;39.768;2.722;2023-11-18T01:18:45;102258.16;;;11.74;100.00
54248;BME280;40161;39.768;2.722;2023-11-18T01:21:12;102265.19;;;11.63;100.00
54248;BME280;40161;39.768;2.722;2023-11-18T01:23:38;102260.25;;;11.77;100.00
54248;BME280;40161;39.768;2.722;2023-11-18T01:26:05;102260.19;;;11.65;100.00
54248;BME280;40161;39.768;2.722;2023-11-18T01:28:31;102264.81;;;11.52;100.00
54248;BME280;40161;39.768;2.722;2023-11-18T01:31:03;102258.63;;;11.55;100.00
54248;BME280;40161;39.768;2.722;2023-11-18T01:33:29;102259.28;;;11.73;100.00
54248;BME280;40161;39.768;2.722;2023-11-18T01:35:55;102268.09;;;11.67;100.00
54248;BME280;40161;39.768;2.722;2023-11-18T01:38:21;102273.59;;;11.67;100.00
54248;BME280;40161;39.768;2.722;2023-11-18T01:40:46;102256.50;;;11.61;100.00
54248;BME280;40161;39.768;2.722;2023-11-18T01:43:12;102263.94;;;11.60;100.00
54248;BME280;40161;39.768;2.722;2023-11-18T01:45:40;102254.34;;;11.67;100.00
54248;BME280;40161;39.768;2.722;2023-11-18T01:48:08;102251.81;;;11.61;100.00
54248;BME280;40161;39.768;2.722;2023-11-18T01:50:38;102233.56;;;11.36;100.00
54248;BME280;40161;39.768;2.722;2023-11-18T01:53:05;102235.63;;;11.18;100.00
54248;BME280;40161;39.768;2.722;2023-11-18T01:55:31;102256.41;;;11.28;100.00
54248;BME280;40161;39.768;2.722;2023-11-18T01:58:00;102271.78;;;11.50;100.00
54248;BME280;40161;39.768;2.722;2023-11-18T02:00:34;102225.06;;;10.99;100.00
54248;BME280;40161;39.768;2.722;2023-11-18T02:03:00;102244.00;;;11.22;100.00
54248;BME280;40161;39.768;2.722;2023-11-18T02:05:26;102252.84;;;11.27;100.00
54248;BME280;40161;39.768;2.722;2023-11-18T02:07:51;102260.31;;;11.27;100.00
54248;BME280;40161;39.768;2.722;2023-11-18T02:10:17;102243.25;;;11.12;100.00
54248;BME280;40161;39.768;2.722;2023-11-18T02:12:49;102277.06;;;11.34;100.00
54248;BME280;40161;39.768;2.722;2023-11-18T02:15:16;102269.72;;;11.47;100.00
54248;BME280;40161;39.768;2.722;2023-11-18T02:17:43;102243.69;;;11.44;100.00
54248;BME280;40161;39.768;2.722;2023-11-18T02:20:11;102263.81;;;11.57;100.00
54248;BME280;40161;39.768;2.722;2023-11-18T02:22:44;102268.97;;;11.58;100.00
54248;BME280;40161;39.768;2.722;2023-11-18T02:25:16;102266.47;;;11.45;100.00
54248;BME280;40161;39.768;2.722;2023-11-18T02:27:42;102275.47;;;11.54;100.00
54248;BME280;40161;39.768;2.722;2023-11-18T02:30:08;102269.31;;;11.57;100.00
54248;BME280;40161;39.768;2.722;2023-11-18T02:32:49;102274.94;;;11.39;100.00
54248;BME280;40161;39.768;2.722;2023-11-18T02:35:30;102256.53;;;11.31;100.00
54248;BME280;40161;39.768;2.722;2023-11-18T02:37:57;102229.66;;;11.16;100.00
54248;BME280;40161;39.768;2.722;2023-11-18T02:40:34;102255.69;;;11.39;100.00
54248;BME280;40161;39.768;2.722;2023-11-18T02:43:01;102262.66;;;11.58;100.00
54248;BME280;40161;39.768;2.722;2023-11-18T02:45:31;102256.88;;;11.72;100.00
54248;BME280;40161;39.768;2.722;2023-11-18T02:47:57;102252.72;;;11.65;100.00
54248;BME280;40161;39.768;2.722;2023-11-18T02:50:26;102261.91;;;11.70;100.00
54248;BME280;40161;39.768;2.722;2023-11-18T02:52:55;102254.66;;;11.23;100.00
54248;BME280;40161;39.768;2.722;2023-11-18T02:55:21;102198.41;;;11.00;100.00
54248;BME280;40161;39.768;2.722;2023-11-18T02:57:48;102259.91;;;11.37;100.00
54248;BME280;40161;39.768;2.722;2023-11-18T03:00:15;102239.91;;;11.28;100.00
54248;BME280;40161;39.768;2.722;2023-11-18T03:02:47;102243.81;;;11.27;100.00
54248;BME280;40161;39.768;2.722;2023-11-18T03:05:13;102238.44;;;11.30;100.00
54248;BME280;40161;39.768;2.722;2023-11-18T03:07:41;102254.53;;;11.40;100.00
54248;BME280;40161;39.768;2.722;2023-11-18T03:10:07;102213.34;;;11.11;100.00
54248;BME280;40161;39.768;2.722;2023-11-18T03:12:38;102261.19;;;11.39;100.00
54248;BME280;40161;39.768;2.722;2023-11-18T03:15:05;102245.41;;;11.28;100.00
54248;BME280;40161;39.768;2.722;2023-11-18T03:17:34;102244.47;;;11.45;100.00
54248;BME280;40161;39.768;2.722;2023-11-18T03:20:00;102242.09;;;11.43;100.00
54248;BME280;40161;39.768;2.722;2023-11-18T03:22:25;102229.47;;;11.42;100.00
54248;BME280;40161;39.768;2.722;2023-11-18T03:24:51;102242.22;;;11.68;100.00
54248;BME280;40161;39.768;2.722;2023-11-18T03:27:18;102242.13;;;11.76;100.00
54248;BME280;40161;39.768;2.722;2023-11-18T03:29:44;102245.34;;;11.78;100.00
54248;BME280;40161;39.768;2.722;2023-11-18T03:32:11;102241.41;;;11.67;100.00
54248;BME280;40161;39.768;2.722;2023-11-18T03:34:38;102236.84;;;11.71;100.00
54248;BME280;40161;39.768;2.722;2023-11-18T03:37:03;102226.13;;;11.57;100.00
54248;BME280;40161;39.768;2.722;2023-11-18T03:39:29;102232.28;;;11.54;100.00
54248;BME280;40161;39.768;2.722;2023-11-18T03:41:54;102216.41;;;11.60;100.00
54248;BME280;40161;39.768;2.722;2023-11-18T03:44:23;102241.59;;;11.62;100.00
54248;BME280;40161;39.768;2.722;2023-11-18T03:46:49;102224.84;;;11.34;100.00
54248;BME280;40161;39.768;2.722;2023-11-18T03:49:15;102253.94;;;11.56;100.00
54248;BME280;40161;39.768;2.722;2023-11-18T03:51:40;102240.72;;;11.49;100.00
54248;BME280;40161;39.768;2.722;2023-11-18T03:54:06;102230.59;;;11.41;100.00
54248;BME280;40161;39.768;2.722;2023-11-18T03:56:34;102254.00;;;11.47;100.00
54248;BME280;40161;39.768;2.722;2023-11-18T03:58:59;102254.81;;;11.48;100.00
54248;BME280;40161;39.768;2.722;2023-11-18T04:01:26;102224.56;;;11.27;100.00
54248;BME280;40161;39.768;2.722;2023-11-18T04:03:54;102263.28;;;11.43;100.00
54248;BME280;40161;39.768;2.722;2023-11-18T04:06:21;102247.19;;;11.53;100.00
54248;BME280;40161;39.768;2.722;2023-11-18T04:08:47;102257.91;;;11.67;100.00
54248;BME280;40161;39.768;2.722;2023-11-18T04:11:14;102225.31;;;11.57;100.00
54248;BME280;40161;39.768;2.722;2023-11-18T04:13:43;102248.78;;;11.75;100.00
54248;BME280;40161;39.768;2.722;2023-11-18T04:16:16;102245.28;;;11.87;100.00
54248;BME280;40161;39.768;2.722;2023-11-18T04:18:43;102241.31;;;11.97;100.00
54248;BME280;40161;39.768;2.722;2023-11-18T04:21:10;102249.38;;;12.02;100.00
54248;BME280;40161;39.768;2.722;2023-11-18T04:23:41;102220.47;;;11.75;100.00
54248;BME280;40161;39.768;2.722;2023-11-18T04:26:08;102222.75;;;11.73;100.00
54248;BME280;40161;39.768;2.722;2023-11-18T04:28:34;102253.13;;;11.97;100.00
54248;BME280;40161;39.768;2.722;2023-11-18T04:31:00;102227.91;;;11.95;100.00
54248;BME280;40161;39.768;2.722;2023-11-18T04:33:26;102248.22;;;12.03;100.00
54248;BME280;40161;39.768;2.722;2023-11-18T04:35:52;102253.47;;;11.96;100.00
54248;BME280;40161;39.768;2.722;2023-11-18T04:38:20;102250.94;;;11.91;100.00
54248;BME280;40161;39.768;2.722;2023-11-18T04:40:46;102240.94;;;11.86;100.00
54248;BME280;40161;39.768;2.722;2023-11-18T04:43:12;102266.88;;;11.97;100.00
54248;BME280;40161;39.768;2.722;2023-11-18T04:45:38;102274.88;;;11.90;100.00
54248;BME280;40161;39.768;2.722;2023-11-18T04:48:04;102268.56;;;11.90;100.00
54248;BME280;40161;39.768;2.722;2023-11-18T04:50:31;102256.47;;;12.03;100.00
54248;BME280;40161;39.768;2.722;2023-11-18T04:52:57;102255.81;;;12.06;100.00
54248;BME280;40161;39.768;2.722;2023-11-18T04:55:22;102264.78;;;12.15;100.00
54248;BME280;40161;39.768;2.722;2023-11-18T04:57:49;102260.88;;;12.16;100.00
54248;BME280;40161;39.768;2.722;2023-11-18T05:00:14;102270.97;;;12.24;100.00
54248;BME280;40161;39.768;2.722;2023-11-18T05:02:42;102250.06;;;12.11;100.00
54248;BME280;40161;39.768;2.722;2023-11-18T05:05:09;102247.19;;;12.07;100.00
54248;BME280;40161;39.768;2.722;2023-11-18T05:07:36;102265.28;;;12.29;100.00
54248;BME280;40161;39.768;2.722;2023-11-18T05:10:03;102239.78;;;12.20;100.00
54248;BME280;40161;39.768;2.722;2023-11-18T05:12:29;102263.75;;;12.20;100.00
54248;BME280;40161;39.768;2.722;2023-11-18T05:14:56;102262.97;;;12.19;100.00
54248;BME280;40161;39.768;2.722;2023-11-18T05:17:23;102263.06;;;12.23;100.00
54248;BME280;40161;39.768;2.722;2023-11-18T05:19:48;102263.81;;;12.32;100.00
54248;BME280;40161;39.768;2.722;2023-11-18T05:22:14;102257.03;;;12.29;100.00
54248;BME280;40161;39.768;2.722;2023-11-18T05:24:39;102248.66;;;12.38;100.00
54248;BME280;40161;39.768;2.722;2023-11-18T05:27:05;102235.44;;;12.31;100.00
54248;BME280;40161;39.768;2.722;2023-11-18T05:29:31;102241.19;;;12.39;100.00
54248;BME280;40161;39.768;2.722;2023-11-18T05:31:57;102245.47;;;12.48;100.00
54248;BME280;40161;39.768;2.722;2023-11-18T05:34:24;102256.16;;;12.62;100.00
54248;BME280;40161;39.768;2.722;2023-11-18T05:36:50;102251.22;;;12.68;100.00
54248;BME280;40161;39.768;2.722;2023-11-18T05:39:22;102260.75;;;12.70;100.00
54248;BME280;40161;39.768;2.722;2023-11-18T05:41:50;102263.16;;;12.72;100.00
54248;BME280;40161;39.768;2.722;2023-11-18T05:44:16;102271.31;;;12.68;100.00
54248;BME280;40161;39.768;2.722;2023-11-18T05:46:47;102259.13;;;12.69;100.00
54248;BME280;40161;39.768;2.722;2023-11-18T05:49:16;102258.13;;;12.74;100.00
54248;BME280;40161;39.768;2.722;2023-11-18T05:51:42;102264.19;;;12.79;100.00
54248;BME280;40161;39.768;2.722;2023-11-18T05:54:08;102259.38;;;12.76;100.00
54248;BME280;40161;39.768;2.722;2023-11-18T05:56:34;102262.22;;;12.80;100.00
54248;BME280;40161;39.768;2.722;2023-11-18T05:59:00;102258.00;;;12.82;100.00
54248;BME280;40161;39.768;2.722;2023-11-18T06:01:29;102256.03;;;12.83;100.00
54248;BME280;40161;39.768;2.722;2023-11-18T06:03:55;102265.34;;;12.78;100.00
54248;BME280;40161;39.768;2.722;2023-11-18T06:06:22;102270.50;;;12.80;100.00
54248;BME280;40161;39.768;2.722;2023-11-18T06:08:47;102258.00;;;12.70;100.00
54248;BME280;40161;39.768;2.722;2023-11-18T06:11:14;102290.81;;;12.75;100.00
54248;BME280;40161;39.768;2.722;2023-11-18T06:13:48;102286.91;;;12.76;100.00
54248;BME280;40161;39.768;2.722;2023-11-18T06:16:16;102281.16;;;12.69;100.00
54248;BME280;40161;39.768;2.722;2023-11-18T06:18:43;102277.97;;;12.67;100.00
54248;BME280;40161;39.768;2.722;2023-11-18T06:21:16;102267.97;;;12.75;100.00
54248;BME280;40161;39.768;2.722;2023-11-18T06:23:45;102264.41;;;12.62;100.00
54248;BME280;40161;39.768;2.722;2023-11-18T06:26:14;102261.09;;;12.56;100.00
54248;BME280;40161;39.768;2.722;2023-11-18T06:28:41;102272.09;;;12.69;100.00
54248;BME280;40161;39.768;2.722;2023-11-18T06:31:08;102241.47;;;12.58;100.00
54248;BME280;40161;39.768;2.722;2023-11-18T06:33:40;102270.63;;;12.71;100.00
54248;BME280;40161;39.768;2.722;2023-11-18T06:36:18;102278.41;;;12.69;100.00
54248;BME280;40161;39.768;2.722;2023-11-18T06:38:48;102274.53;;;12.70;100.00
54248;BME280;40161;39.768;2.722;2023-11-18T06:41:19;102242.47;;;12.41;100.00
54248;BME280;40161;39.768;2.722;2023-11-18T06:43:48;102272.66;;;12.50;100.00
54248;BME280;40161;39.768;2.722;2023-11-18T06:46:27;102279.06;;;12.42;100.00
54248;BME280;40161;39.768;2.722;2023-11-18T06:48:57;102266.69;;;12.35;100.00
54248;BME280;40161;39.768;2.722;2023-11-18T06:51:26;102273.34;;;12.47;100.00
54248;BME280;40161;39.768;2.722;2023-11-18T06:53:57;102284.13;;;12.52;100.00
54248;BME280;40161;39.768;2.722;2023-11-18T06:56:26;102284.72;;;12.57;100.00
54248;BME280;40161;39.768;2.722;2023-11-18T06:58:53;102300.22;;;12.62;100.00
54248;BME280;40161;39.768;2.722;2023-11-18T07:01:19;102275.41;;;12.50;100.00
54248;BME280;40161;39.768;2.722;2023-11-18T07:03:46;102278.81;;;12.34;100.00
54248;BME280;40161;39.768;2.722;2023-11-18T07:06:18;102273.78;;;12.37;100.00
54248;BME280;40161;39.768;2.722;2023-11-18T07:08:51;102306.28;;;12.55;100.00
54248;BME280;40161;39.768;2.722;2023-11-18T07:11:17;102301.69;;;12.47;100.00
54248;BME280;40161;39.768;2.722;2023-11-18T07:13:47;102283.19;;;12.35;100.00
54248;BME280;40161;39.768;2.722;2023-11-18T07:16:13;102301.81;;;12.51;100.00
54248;BME280;40161;39.768;2.722;2023-11-18T07:18:39;102285.50;;;12.46;100.00
54248;BME280;40161;39.768;2.722;2023-11-18T07:21:05;102304.88;;;12.37;100.00
54248;BME280;40161;39.768;2.722;2023-11-18T07:23:32;102299.16;;;12.42;100.00
54248;BME280;40161;39.768;2.722;2023-11-18T07:25:57;102284.44;;;12.38;100.00
54248;BME280;40161;39.768;2.722;2023-11-18T07:28:23;102290.31;;;12.49;100.00
54248;BME280;40161;39.768;2.722;2023-11-18T07:30:49;102313.50;;;12.48;100.00
54248;BME280;40161;39.768;2.722;2023-11-18T07:33:15;102329.44;;;12.42;100.00
54248;BME280;40161;39.768;2.722;2023-11-18T07:35:42;102318.75;;;12.41;100.00
54248;BME280;40161;39.768;2.722;2023-11-18T07:38:07;102341.63;;;12.53;100.00
54248;BME280;40161;39.768;2.722;2023-11-18T07:40:34;102300.03;;;12.34;100.00
54248;BME280;40161;39.768;2.722;2023-11-18T07:43:00;102316.13;;;12.44;100.00
54248;BME280;40161;39.768;2.722;2023-11-18T07:45:35;102332.34;;;12.58;100.00
54248;BME280;40161;39.768;2.722;2023-11-18T07:48:06;102344.25;;;12.50;100.00
54248;BME280;40161;39.768;2.722;2023-11-18T07:50:36;102346.22;;;12.49;100.00
54248;BME280;40161;39.768;2.722;2023-11-18T07:53:03;102362.31;;;12.59;100.00
54248;BME280;40161;39.768;2.722;2023-11-18T07:55:29;102373.66;;;12.58;100.00
54248;BME280;40161;39.768;2.722;2023-11-18T07:57:55;102352.22;;;12.30;100.00
54248;BME280;40161;39.768;2.722;2023-11-18T08:00:21;102363.22;;;12.30;100.00
54248;BME280;40161;39.768;2.722;2023-11-18T08:02:46;102356.38;;;12.37;100.00
54248;BME280;40161;39.768;2.722;2023-11-18T08:05:12;102365.25;;;12.54;100.00
54248;BME280;40161;39.768;2.722;2023-11-18T08:07:43;102353.16;;;12.34;100.00
54248;BME280;40161;39.768;2.722;2023-11-18T08:10:10;102364.88;;;12.44;100.00
54248;BME280;40161;39.768;2.722;2023-11-18T08:12:44;102371.13;;;12.53;100.00
54248;BME280;40161;39.768;2.722;2023-11-18T08:15:10;102379.75;;;12.64;100.00
54248;BME280;40161;39.768;2.722;2023-11-18T08:17:36;102386.38;;;12.63;100.00
54248;BME280;40161;39.768;2.722;2023-11-18T08:20:02;102382.03;;;12.62;100.00
54248;BME280;40161;39.768;2.722;2023-11-18T08:22:40;102395.94;;;12.65;100.00
54248;BME280;40161;39.768;2.722;2023-11-18T08:25:07;102388.09;;;12.55;100.00
54248;BME280;40161;39.768;2.722;2023-11-18T08:27:34;102398.97;;;12.51;100.00
54248;BME280;40161;39.768;2.722;2023-11-18T08:30:01;102402.09;;;12.50;100.00
54248;BME280;40161;39.768;2.722;2023-11-18T08:32:26;102392.69;;;12.51;100.00
54248;BME280;40161;39.768;2.722;2023-11-18T08:34:52;102382.00;;;12.49;100.00
54248;BME280;40161;39.768;2.722;2023-11-18T08:37:17;102381.75;;;12.42;100.00
54248;BME280;40161;39.768;2.722;2023-11-18T08:39:43;102411.47;;;12.70;100.00
54248;BME280;40161;39.768;2.722;2023-11-18T08:42:08;102392.03;;;12.66;100.00
54248;BME280;40161;39.768;2.722;2023-11-18T08:44:34;102403.19;;;12.70;100.00
54248;BME280;40161;39.768;2.722;2023-11-18T08:46:59;102386.81;;;12.52;100.00
54248;BME280;40161;39.768;2.722;2023-11-18T08:49:26;102415.34;;;12.69;100.00
54248;BME280;40161;39.768;2.722;2023-11-18T08:51:59;102412.03;;;12.75;100.00
54248;BME280;40161;39.768;2.722;2023-11-18T08:54:24;102412.84;;;12.76;100.00
54248;BME280;40161;39.768;2.722;2023-11-18T08:57:03;102417.22;;;12.77;100.00
54248;BME280;40161;39.768;2.722;2023-11-18T08:59:29;102416.50;;;12.80;100.00
54248;BME280;40161;39.768;2.722;2023-11-18T09:01:56;102394.09;;;12.69;100.00
54248;BME280;40161;39.768;2.722;2023-11-18T09:04:25;102415.97;;;12.87;100.00
54248;BME280;40161;39.768;2.722;2023-11-18T09:06:51;102407.94;;;12.94;100.00
54248;BME280;40161;39.768;2.722;2023-11-18T09:09:23;102416.25;;;13.06;100.00
54248;BME280;40161;39.768;2.722;2023-11-18T09:11:56;102420.28;;;13.21;100.00
54248;BME280;40161;39.768;2.722;2023-11-18T09:14:24;102388.78;;;13.10;100.00
54248;BME280;40161;39.768;2.722;2023-11-18T09:16:51;102409.28;;;13.33;100.00
54248;BME280;40161;39.768;2.722;2023-11-18T09:19:17;102422.28;;;13.45;100.00
54248;BME280;40161;39.768;2.722;2023-11-18T09:21:43;102419.63;;;13.48;100.00
54248;BME280;40161;39.768;2.722;2023-11-18T09:24:10;102418.94;;;13.64;100.00
54248;BME280;40161;39.768;2.722;2023-11-18T09:26:40;102417.56;;;13.70;100.00
54248;BME280;40161;39.768;2.722;2023-11-18T09:29:06;102421.78;;;13.80;100.00
54248;BME280;40161;39.768;2.722;2023-11-18T09:31:37;102423.75;;;13.91;100.00
54248;BME280;40161;39.768;2.722;2023-11-18T09:34:03;102425.56;;;13.99;100.00
54248;BME280;40161;39.768;2.722;2023-11-18T09:36:32;102340.69;;;13.56;100.00
54248;BME280;40161;39.768;2.722;2023-11-18T09:38:59;102384.84;;;13.96;100.00
54248;BME280;40161;39.768;2.722;2023-11-18T09:41:25;102406.06;;;14.20;100.00
54248;BME280;40161;39.768;2.722;2023-11-18T09:43:52;102398.69;;;14.24;100.00
54248;BME280;40161;39.768;2.722;2023-11-18T09:46:29;102396.47;;;14.30;100.00
54248;BME280;40161;39.768;2.722;2023-11-18T09:49:17;102412.66;;;14.44;100.00
54248;BME280;40161;39.768;2.722;2023-11-18T09:51:56;102385.53;;;14.34;100.00
54248;BME280;40161;39.768;2.722;2023-11-18T09:57:18;102401.78;;;14.63;100.00
54248;BME280;40161;39.768;2.722;2023-11-18T10:02:12;102412.00;;;14.91;100.00
54248;BME280;40161;39.768;2.722;2023-11-18T10:04:39;102418.13;;;15.00;100.00
54248;BME280;40161;39.768;2.722;2023-11-18T10:07:08;102416.72;;;15.06;100.00
54248;BME280;40161;39.768;2.722;2023-11-18T10:09:36;102401.75;;;15.07;100.00
54248;BME280;40161;39.768;2.722;2023-11-18T10:12:08;102374.81;;;15.04;100.00
54248;BME280;40161;39.768;2.722;2023-11-18T10:14:35;102393.53;;;15.27;100.00
54248;BME280;40161;39.768;2.722;2023-11-18T10:17:08;102397.28;;;15.34;100.00
54248;BME280;40161;39.768;2.722;2023-11-18T10:20:03;102406.75;;;15.49;100.00
54248;BME280;40161;39.768;2.722;2023-11-18T10:22:38;102410.81;;;15.55;100.00
54248;BME280;40161;39.768;2.722;2023-11-18T10:25:04;102366.66;;;15.43;100.00
54248;BME280;40161;39.768;2.722;2023-11-18T10:27:31;102385.09;;;15.55;100.00
54248;BME280;40161;39.768;2.722;2023-11-18T10:30:05;102382.81;;;15.73;100.00
54248;BME280;40161;39.768;2.722;2023-11-18T10:32:55;102378.22;;;15.80;100.00
54248;BME280;40161;39.768;2.722;2023-11-18T10:35:21;102382.41;;;15.90;100.00
54248;BME280;40161;39.768;2.722;2023-11-18T10:37:47;102395.22;;;15.98;100.00
54248;BME280;40161;39.768;2.722;2023-11-18T10:40:14;102397.75;;;16.07;100.00
54248;BME280;40161;39.768;2.722;2023-11-18T10:42:40;102377.50;;;16.03;100.00
54248;BME280;40161;39.768;2.722;2023-11-18T10:45:08;102376.13;;;16.12;100.00
54248;BME280;40161;39.768;2.722;2023-11-18T10:47:42;102349.47;;;16.04;100.00
54248;BME280;40161;39.768;2.722;2023-11-18T10:50:08;102376.41;;;16.27;100.00
54248;BME280;40161;39.768;2.722;2023-11-18T10:52:37;102332.53;;;16.09;100.00
54248;BME280;40161;39.768;2.722;2023-11-18T10:55:06;102382.22;;;16.41;100.00
54248;BME280;40161;39.768;2.722;2023-11-18T10:57:38;102381.56;;;16.48;100.00
54248;BME280;40161;39.768;2.722;2023-11-18T11:00:05;102372.47;;;16.47;100.00
54248;BME280;40161;39.768;2.722;2023-11-18T11:02:44;102377.84;;;16.59;100.00
54248;BME280;40161;39.768;2.722;2023-11-18T11:05:12;102355.84;;;16.47;99.04
54248;BME280;40161;39.768;2.722;2023-11-18T11:07:53;102384.75;;;16.69;98.88
54248;BME280;40161;39.768;2.722;2023-11-18T11:10:19;102377.81;;;16.79;98.00
54248;BME280;40161;39.768;2.722;2023-11-18T11:12:55;102370.81;;;16.85;97.91
54248;BME280;40161;39.768;2.722;2023-11-18T11:15:31;102349.47;;;16.89;97.34
54248;BME280;40161;39.768;2.722;2023-11-18T11:18:11;102350.03;;;16.98;96.09
54248;BME280;40161;39.768;2.722;2023-11-18T11:23:28;102337.09;;;17.06;93.09
54248;BME280;40161;39.768;2.722;2023-11-18T11:31:53;102311.59;;;17.23;92.11
54248;BME280;40161;39.768;2.722;2023-11-18T11:34:24;102328.88;;;17.40;91.84
54248;BME280;40161;39.768;2.722;2023-11-18T11:36:56;102321.75;;;17.39;91.18
54248;BME280;40161;39.768;2.722;2023-11-18T11:39:24;102325.75;;;17.41;90.45
54248;BME280;40161;39.768;2.722;2023-11-18T11:41:55;102318.69;;;17.47;90.38
54248;BME280;40161;39.768;2.722;2023-11-18T11:44:22;102308.88;;;17.53;90.35
54248;BME280;40161;39.768;2.722;2023-11-18T11:46:54;102301.72;;;17.52;89.58
54248;BME280;40161;39.768;2.722;2023-11-18T11:49:23;102306.13;;;17.57;89.47
54248;BME280;40161;39.768;2.722;2023-11-18T11:54:52;102314.25;;;17.69;87.16
54248;BME280;40161;39.768;2.722;2023-11-18T11:57:22;102293.06;;;17.58;85.98
54248;BME280;40161;39.768;2.722;2023-11-18T12:02:20;102301.72;;;17.79;84.68
54248;BME280;40161;39.768;2.722;2023-11-18T12:04:50;102298.19;;;17.86;84.25
54248;BME280;40161;39.768;2.722;2023-11-18T12:07:25;102295.88;;;17.91;83.80
54248;BME280;40161;39.768;2.722;2023-11-18T12:10:01;102297.13;;;17.94;84.17
54248;BME280;40161;39.768;2.722;2023-11-18T12:12:31;102285.22;;;17.93;83.90
54248;BME280;40161;39.768;2.722;2023-11-18T12:14:59;102286.94;;;18.05;82.69
54248;BME280;40161;39.768;2.722;2023-11-18T12:20:43;102289.03;;;18.15;84.02
54248;BME280;40161;39.768;2.722;2023-11-18T12:23:35;102296.59;;;18.18;84.83
54248;BME280;40161;39.768;2.722;2023-11-18T12:26:02;102283.91;;;18.17;85.38
54248;BME280;40161;39.768;2.722;2023-11-18T12:28:48;102278.66;;;18.12;86.37
54248;BME280;40161;39.768;2.722;2023-11-18T12:31:39;102279.56;;;18.23;86.00
54248;BME280;40161;39.768;2.722;2023-11-18T12:34:05;102262.03;;;18.16;86.62
54248;BME280;40161;39.768;2.722;2023-11-18T12:37:07;102271.22;;;18.23;86.94
54248;BME280;40161;39.768;2.722;2023-11-18T12:39:43;102269.34;;;18.31;86.87
54248;BME280;40161;39.768;2.722;2023-11-18T12:42:57;102255.00;;;18.25;86.62
54248;BME280;40161;39.768;2.722;2023-11-18T12:48:27;102266.19;;;18.33;87.69
54248;BME280;40161;39.768;2.722;2023-11-18T12:50:57;102260.25;;;18.34;87.91
54248;BME280;40161;39.768;2.722;2023-11-18T12:53:24;102254.69;;;18.34;87.39
54248;BME280;40161;39.768;2.722;2023-11-18T12:55:50;102253.94;;;18.41;88.57
54248;BME280;40161;39.768;2.722;2023-11-18T12:58:17;102213.63;;;18.17;88.75
54248;BME280;40161;39.768;2.722;2023-11-18T13:00:50;102240.44;;;18.39;89.39
54248;BME280;40161;39.768;2.722;2023-11-18T13:03:16;102236.84;;;18.39;89.79
54248;BME280;40161;39.768;2.722;2023-11-18T13:05:43;102230.47;;;18.35;91.00
54248;BME280;40161;39.768;2.722;2023-11-18T13:08:09;102244.03;;;18.43;91.90
54248;BME280;40161;39.768;2.722;2023-11-18T13:10:35;102252.38;;;18.43;91.53
54248;BME280;40161;39.768;2.722;2023-11-18T13:13:02;102242.44;;;18.42;92.03